METAR Data
IDs: Format: Raw Decoded Include TAF

Data at: 1408 UTC 10 Aug 2022

KMYV 101353Z AUTO 15007KT 10SM CLR 16/13 A3002 RMK AO2 SLP168 T01610128
KMYV 101253Z AUTO 16008KT 10SM CLR 16/13 A2999 RMK AO2 SLP160 T01560128
KMYV 101153Z AUTO 16009KT 10SM CLR 16/13 A2999 RMK AO2 SLP157 T01610128 10200 20161 52003
KMYV 101053Z AUTO 15009KT 10SM CLR 17/12 A2998 RMK AO2 SLP155 T01670122
KMYV 100953Z AUTO 14008KT 10SM CLR 17/12 A2998 RMK AO2 SLP155 T01670122
KMYV 100853Z AUTO 15009KT 10SM CLR 18/12 A2998 RMK AO2 SLP154 T01780117 51009
KMYV 100753Z AUTO 15006KT 10SM CLR 18/12 A2997 RMK AO2 SLP152 T01830117 403440183
KMYV 100653Z AUTO 16011KT 10SM CLR 19/12 A2997 RMK AO2 SLP150 T01940117
KMYV 100553Z AUTO 15010KT 10SM CLR 20/11 A2995 RMK AO2 SLP145 T02000111 10339 20200 53023
KMYV 100453Z AUTO 16009KT 10SM CLR 22/11 A2993 RMK AO2 SLP138 T02170111
KMYV 100353Z AUTO 16014KT 10SM CLR 25/11 A2989 RMK AO2 SLP126 T02500106
KMYV 100253Z AUTO 16012KT 10SM CLR 28/10 A2988 RMK AO2 SLP121 T02780100 53006
KMYV 100153Z AUTO 16012KT 10SM CLR 31/10 A2986 RMK AO2 SLP115 T03110100
KMYV 100053Z AUTO 16012KT 10SM CLR 33/07 A2986 RMK AO2 SLP114 T03330072
KMYV 092353Z AUTO 16010G18KT 10SM CLR 34/07 A2986 RMK AO2 SLP115 T03390072 10344 20256 58016
KMYV 092253Z AUTO 13012KT 10SM CLR 34/09 A2988 RMK AO2 SLP120 T03390089
KMYV 092153Z AUTO 13012G15KT 10SM CLR 33/10 A2990 RMK AO2 SLP127 T03280100
KMYV 092053Z AUTO 12007KT 10SM CLR 31/12 A2991 RMK AO2 SLP131 T03110122 58010
KMYV 091953Z AUTO 16007G14KT 10SM CLR 29/14 A2993 RMK AO2 SLP137 T02940139
KMYV 091853Z AUTO 14009KT 10SM CLR 28/14 A2993 RMK AO2 SLP140 T02830139
KMYV 091753Z AUTO 18009KT 10SM CLR 26/13 A2994 RMK AO2 SLP141 T02560133 10256 20183 50004
KMYV 091653Z AUTO 14009KT 10SM CLR 22/13 A2994 RMK AO2 SLP142 T02220133
KMYV 091553Z AUTO 17011KT 10SM CLR 21/14 A2994 RMK AO2 SLP141 T02110139
KMYV 091453Z AUTO 17010KT 10SM CLR 19/13 A2993 RMK AO2 SLP137 T01890133 53012
KMYV 091353Z AUTO 15009KT 10SM CLR 18/13 A2992 RMK AO2 SLP133 T01830133
KMYV 091253Z AUTO 17007KT 10SM CLR 19/13 A2990 RMK AO2 SLP129 T01890128
KMYV 091153Z AUTO 16006KT 10SM CLR 19/13 A2989 RMK AO2 SLP126 T01890133 10233 20189 53004
KMYV 091053Z AUTO 16009KT 10SM CLR 19/12 A2989 RMK AO2 SLP123 T01940122
KMYV 090953Z AUTO 16010KT 10SM CLR 20/12 A2987 RMK AO2 SLP119 T02000122
KMYV 090853Z AUTO 16010KT 10SM CLR 21/12 A2988 RMK AO2 SLP121 T02060117 55000
KMYV 090753Z AUTO 16011KT 10SM CLR 22/12 A2988 RMK AO2 SLP121 T02220117 403560144
KMYV 090653Z AUTO 15007KT 10SM CLR 23/12 A2988 RMK AO2 SLP120 T02280117
KMYV 090553Z AUTO 15006KT 10SM CLR 23/11 A2988 RMK AO2 SLP122 T02330111 10356 20233 52012
KMYV 090453Z AUTO 16009KT 10SM CLR 26/12 A2987 RMK AO2 SLP119 T02560122
KMYV 090353Z AUTO 18009KT 10SM CLR 28/10 A2985 RMK AO2 SLP113 T02830100
KMYV 090253Z AUTO 18011KT 10SM CLR 31/08 A2985 RMK AO2 SLP109 T03110083 55003